Eggville, Mississippi
Current Conditions -  °F | °C
As of 4:30 PM on Sunday 21 Dec 2014 (Local Time) from KTUP Reporting Station
Broken Clouds Broken Clouds  
Wind Chill: 53°   Ceiling: 2700
Heat Index: 53°   Visibility: 10mi
Dew Point: 40°   Wind: 6mph
Humidity: 61%   Direction: 180°S
Pressure: 30.05"   Gusts: NA
Location:  34.3954°N, 88.6292°W
Report Text: KTUP 212230Z AUTO 18005KT 10SM BKN027 12/04 A3005 RMK AO2 T01170044
Loading
Personal Weather Stations






























Interactive Weather Map New forecast layout! Learn more

10-Day Weather Forecast

Advertisements
Track Severe Weather on mobile